Time;durP1;ratioP1;P1;durP2;ratioP2;P2;SDS_P1;SDS_P2;PMS_P1;PMS_P2;Temp;Humidity;BMP_temperature;BMP_pressure;BME280_temperature;BME280_humidity;BME280_pressure;Samples;Min_cycle;Max_cycle;Signal;HPM_P1;HPM_P2
2024/02/10 00:19:29;;;;;;;89.68;9.13;;;;;;;4.67;100.00;96424.03;4960029;28;20038;-94
2024/02/10 00:26:46;;;;;;;17.88;10.27;;;;;;;4.53;100.00;96438.13;4823202;29;20061;-94
2024/02/10 00:29:23;;;;;;;29.88;12.23;;;;;;;4.51;100.00;96430.50;4875820;29;20099;-93
2024/02/10 00:32:16;;;;;;;33.78;15.95;;;;;;;4.52;100.00;96432.13;4956901;28;20065;-93
2024/02/10 00:35:21;;;;;;;;;;;;;;;;;;;;;
2024/02/10 00:39:11;;;;;;;;;;;;;;;;;;;;;
2024/02/10 00:41:41;;;;;;;125.85;9.82;;;;;;;4.36;100.00;96435.97;4940119;28;20039;-94
2024/02/10 00:49:00;;;;;;;126.28;10.23;;;;;;;4.24;100.00;96435.78;4970008;28;20142;-94
2024/02/10 00:51:35;;;;;;;59.70;8.35;;;;;;;4.20;100.00;96434.59;4958771;28;20038;-94
2024/02/10 00:55:00;;;;;;;54.40;8.30;;;;;;;4.24;100.00;96442.84;4949663;28;20129;-94
2024/02/10 01:10:47;;;;;;;237.43;14.30;;;;;;;3.73;100.00;96435.38;4821429;29;20049;-94
2024/02/10 01:13:13;;;;;;;125.22;9.95;;;;;;;3.70;100.00;96441.81;4830505;29;20037;-93
2024/02/10 01:15:39;;;;;;;91.63;13.65;;;;;;;3.64;100.00;96447.84;4896671;28;20138;-94
2024/02/10 01:39:53;;;;;;;34.65;5.40;;;;;;;3.92;100.00;96446.03;4823518;29;20067;-93
2024/02/10 01:43:30;;;;;;;11.00;3.85;;;;;;;3.93;100.00;96437.22;4811970;29;20818;-93
2024/02/10 01:46:35;;;;;;;12.43;4.45;;;;;;;3.88;100.00;96429.16;4908386;28;20137;-94
2024/02/10 01:49:33;;;;;;;;;;;;;;;;;;;;;
2024/02/10 01:53:25;;;;;;;29.48;4.65;;;;;;;3.77;100.00;96435.78;4960738;28;20042;-94
2024/02/10 01:57:06;;;;;;;380.25;16.23;;;;;;;3.60;100.00;96434.38;4896668;29;20094;-94
2024/02/10 02:00:39;;;;;;;83.00;10.18;;;;;;;3.54;100.00;96437.78;4908704;29;20039;-94
2024/02/10 02:04:21;;;;;;;25.38;8.80;;;;;;;3.46;100.00;96433.56;4874647;29;20044;-94
2024/02/10 02:07:11;;;;;;;30.27;7.80;;;;;;;3.50;100.00;96439.19;4932589;28;20402;-95
2024/02/10 02:09:45;;;;;;;16.77;7.03;;;;;;;3.45;100.00;96431.16;4933168;29;20039;-94
2024/02/10 02:24:43;;;;;;;;;;;;;;;;;;;;;
2024/02/10 02:44:14;;;;;;;14.25;3.17;;;;;;;3.49;100.00;96442.78;4938537;28;20066;-94
2024/02/10 02:56:02;;;;;;;12.32;1.92;;;;;;;3.60;100.00;96444.81;4968084;28;20098;-94
2024/02/10 02:58:28;;;;;;;11.23;1.60;;;;;;;3.58;100.00;96446.81;4925787;28;20516;-94
2024/02/10 03:04:49;;;;;;;18.23;2.38;;;;;;;3.68;100.00;96446.44;4946113;28;20035;-94
2024/02/10 03:07:30;;;;;;;10.77;1.88;;;;;;;3.69;100.00;96434.19;4930138;28;20034;-94
2024/02/10 03:09:56;;;;;;;16.20;2.40;;;;;;;3.75;100.00;96435.19;4925848;28;20038;-94
2024/02/10 03:27:48;;;;;;;16.98;3.35;;;;;;;3.91;100.00;96450.47;4942310;28;20312;-94
2024/02/10 03:30:58;;;;;;;;;;;;;;;;;;;;;
2024/02/10 03:34:40;;;;;;;13.43;2.42;;;;;;;3.92;100.00;96430.38;4934473;29;20035;-94
2024/02/10 03:38:42;;;;;;;17.23;2.53;;;;;;;3.80;100.00;96433.59;4929363;29;20085;-94
2024/02/10 03:45:37;;;;;;;15.23;2.95;;;;;;;3.69;100.00;96434.19;4920953;29;20032;-94
2024/02/10 03:48:17;;;;;;;12.68;3.10;;;;;;;3.67;100.00;96418.72;4915778;29;20043;-94
2024/02/10 03:50:46;;;;;;;9.25;2.70;;;;;;;3.67;100.00;96431.78;4916983;29;20637;-95
2024/02/10 03:53:12;;;;;;;11.07;2.90;;;;;;;3.60;100.00;96426.53;4917143;29;20055;-94
2024/02/10 03:55:38;;;;;;;11.90;3.28;;;;;;;3.68;100.00;96435.19;4911349;29;20483;-94
2024/02/10 03:58:09;;;;;;;10.38;3.30;;;;;;;3.67;100.00;96429.16;4889242;29;20044;-94
2024/02/10 04:00:43;;;;;;;10.73;3.17;;;;;;;3.62;100.00;96430.75;4902008;29;20544;-95
2024/02/10 04:03:12;;;;;;;10.93;3.53;;;;;;;3.53;100.00;96435.38;4932660;29;20160;-94
2024/02/10 04:05:41;;;;;;;7.63;3.15;;;;;;;3.44;100.00;96432.94;4911426;28;20047;-94
2024/02/10 04:08:23;;;;;;;15.10;3.72;;;;;;;3.42;100.00;96434.16;4944522;28;20481;-93
2024/02/10 04:15:13;;;;;;;7.85;3.30;;;;;;;3.21;100.00;96431.50;4956313;28;20063;-95
2024/02/10 04:17:48;;;;;;;13.20;4.18;;;;;;;3.17;100.00;96427.66;4920704;28;20046;-95
2024/02/10 04:21:09;;;;;;;11.90;4.03;;;;;;;3.15;100.00;96423.66;4946709;28;20069;-94
2024/02/10 04:23:37;;;;;;;16.33;4.40;;;;;;;3.21;100.00;96428.09;4922569;28;20046;-95
2024/02/10 04:29:50;;;;;;;14.02;4.95;;;;;;;3.20;100.00;96416.81;4919524;28;20042;-95
2024/02/10 04:32:16;;;;;;;9.30;4.30;;;;;;;3.17;100.00;96419.84;4974758;28;20031;-95
2024/02/10 04:34:43;;;;;;;13.98;4.28;;;;;;;3.17;100.00;96419.03;4940965;28;20035;-95
2024/02/10 04:37:12;;;;;;;19.67;4.85;;;;;;;3.20;100.00;96427.25;4958426;28;20130;-95
2024/02/10 04:39:40;;;;;;;12.25;4.88;;;;;;;3.15;100.00;96416.63;4947150;28;20049;-95
2024/02/10 04:42:06;;;;;;;13.60;4.32;;;;;;;3.16;100.00;96425.25;4947755;28;20081;-95
2024/02/10 04:44:32;;;;;;;15.25;4.45;;;;;;;3.11;100.00;96425.84;4941206;29;20071;-94
2024/02/10 04:46:58;;;;;;;11.80;4.28;;;;;;;3.10;100.00;96426.84;4925014;28;20043;-94
2024/02/10 04:49:27;;;;;;;8.07;3.88;;;;;;;3.08;100.00;96434.88;4922664;28;20034;-94
2024/02/10 04:51:53;;;;;;;13.75;4.88;;;;;;;3.12;100.00;96443.13;4927458;28;20046;-95
2024/02/10 04:54:19;;;;;;;11.25;4.15;;;;;;;3.09;100.00;96435.69;4926863;28;20043;-94
2024/02/10 04:56:45;;;;;;;14.82;4.40;;;;;;;3.12;100.00;96437.09;4928827;29;20477;-95
2024/02/10 04:59:18;;;;;;;9.90;4.68;;;;;;;3.16;100.00;96443.50;4923932;29;20043;-95
2024/02/10 05:01:44;;;;;;;17.58;5.07;;;;;;;3.16;100.00;96443.50;4926189;29;20036;-94
2024/02/10 05:04:14;;;;;;;14.10;4.68;;;;;;;3.18;100.00;96457.19;4917640;29;20405;-94
2024/02/10 05:06:49;;;;;;;17.40;4.40;;;;;;;3.16;100.00;96443.50;4906682;28;20118;-94
2024/02/10 05:09:15;;;;;;;18.80;4.45;;;;;;;3.18;100.00;96449.34;4939206;28;20509;-94
2024/02/10 05:11:41;;;;;;;15.38;4.47;;;;;;;3.23;100.00;96455.56;4939715;28;20401;-94
2024/02/10 05:14:10;;;;;;;15.60;4.32;;;;;;;3.31;100.00;96453.81;4912392;29;20369;-95
2024/02/10 05:16:37;;;;;;;11.93;4.40;;;;;;;3.32;100.00;96461.44;4924658;28;20047;-94
2024/02/10 05:19:04;;;;;;;13.90;4.85;;;;;;;3.35;100.00;96468.06;4919863;29;20039;-95
2024/02/10 05:21:32;;;;;;;10.02;4.63;;;;;;;3.33;100.00;96462.22;4912073;29;20478;-94
2024/02/10 05:24:07;;;;;;;17.90;4.38;;;;;;;3.42;100.00;96468.91;4912741;28;20035;-95
2024/02/10 05:26:40;;;;;;;18.25;4.53;;;;;;;3.42;100.00;96471.50;4926699;28;20237;-95
2024/02/10 05:29:34;;;;;;;20.52;5.18;;;;;;;3.42;100.00;96476.72;4917911;29;20486;-95
2024/02/10 05:32:03;;;;;;;15.52;4.90;;;;;;;3.46;100.00;96487.56;4932290;28;20102;-95
2024/02/10 05:34:31;;;;;;;18.10;4.57;;;;;;;3.44;100.00;96479.94;4919903;28;20043;-94
2024/02/10 05:37:06;;;;;;;25.90;4.82;;;;;;;3.47;100.00;96484.75;4907785;29;20520;-95
2024/02/10 05:39:35;;;;;;;13.50;4.15;;;;;;;3.40;100.00;96488.34;4923221;28;20057;-95
2024/02/10 05:42:13;;;;;;;13.05;4.15;;;;;;;3.45;100.00;96489.38;4924798;29;20134;-95
2024/02/10 05:44:42;;;;;;;14.57;3.95;;;;;;;3.42;100.00;96489.78;4932967;29;20122;-94
2024/02/10 05:47:08;;;;;;;19.17;4.43;;;;;;;3.48;100.00;96501.22;4940180;28;20043;-94
2024/02/10 05:50:00;;;;;;;20.65;4.63;;;;;;;3.50;100.00;96493.22;4943991;28;20490;-94
2024/02/10 05:52:37;;;;;;;15.02;3.83;;;;;;;3.44;100.00;96490.38;4903676;29;20039;-94
2024/02/10 05:55:03;;;;;;;18.35;4.32;;;;;;;3.46;100.00;96485.78;4922244;28;20046;-94
2024/02/10 05:57:29;;;;;;;16.10;4.20;;;;;;;3.52;100.00;96499.81;4924555;28;20043;-94
2024/02/10 05:59:55;;;;;;;16.50;4.03;;;;;;;3.53;100.00;96492.81;4939816;29;20051;-95
2024/02/10 06:02:21;;;;;;;18.05;3.90;;;;;;;3.53;100.00;96498.84;4932765;29;20035;-94
2024/02/10 06:04:50;;;;;;;13.57;4.30;;;;;;;3.59;100.00;96505.06;4932311;29;20086;-94
2024/02/10 06:07:19;;;;;;;12.93;3.42;;;;;;;3.60;100.00;96511.91;4925343;28;20031;-94
2024/02/10 06:09:53;;;;;;;20.95;4.15;;;;;;;3.60;100.00;96506.69;4929652;29;20039;-94
2024/02/10 06:12:24;;;;;;;16.35;4.20;;;;;;;3.58;100.00;96517.31;4898536;29;20039;-94
2024/02/10 06:14:51;;;;;;;21.00;3.97;;;;;;;3.45;100.00;96509.47;4940878;29;20063;-94
2024/02/10 06:17:17;;;;;;;18.45;3.50;;;;;;;3.41;100.00;96518.69;4922923;29;20035;-94
2024/02/10 06:19:44;;;;;;;31.85;2.97;;;;;;;3.35;100.00;96518.47;4945053;28;20097;-94
2024/02/10 06:22:10;;;;;;;20.85;3.97;;;;;;;3.26;100.00;96518.84;4922991;29;20489;-95
2024/02/10 06:24:56;;;;;;;13.65;3.28;;;;;;;3.25;100.00;96525.06;4939387;28;20510;-94
2024/02/10 06:27:29;;;;;;;12.60;2.78;;;;;;;3.13;100.00;96523.00;4929717;29;20044;-95
2024/02/10 06:29:58;;;;;;;17.83;3.17;;;;;;;3.08;100.00;96534.03;4920785;28;20649;-95
2024/02/10 06:33:11;;;;;;;15.70;3.75;;;;;;;3.09;100.00;96537.44;4937685;29;20066;-95
2024/02/10 06:35:38;;;;;;;17.45;3.50;;;;;;;3.00;100.00;96534.16;4922216;29;20110;-94
2024/02/10 06:38:04;;;;;;;15.88;3.13;;;;;;;3.02;100.00;96547.84;4921786;28;20042;-95
2024/02/10 06:40:30;;;;;;;9.05;3.08;;;;;;;3.06;100.00;96537.81;4918757;29;20027;-95
2024/02/10 06:43:02;;;;;;;27.38;3.97;;;;;;;3.16;100.00;96546.09;4943192;28;20397;-95
2024/02/10 06:45:30;;;;;;;20.15;4.63;;;;;;;3.17;100.00;96550.31;4937111;29;20039;-95
2024/02/10 06:47:56;;;;;;;20.33;3.63;;;;;;;3.23;100.00;96556.56;4897720;28;20039;-94
2024/02/10 06:50:26;;;;;;;23.50;4.20;;;;;;;3.25;100.00;96549.34;4913435;29;20430;-94
2024/02/10 06:52:53;;;;;;;16.35;3.40;;;;;;;3.35;100.00;96555.00;4936091;29;20618;-95
2024/02/10 06:55:19;;;;;;;25.33;3.08;;;;;;;3.42;100.00;96562.06;4942976;28;20497;-94
2024/02/10 06:57:47;;;;;;;17.08;3.03;;;;;;;3.40;100.00;96554.44;4940251;28;20528;-94
2024/02/10 07:00:17;;;;;;;14.32;3.85;;;;;;;3.50;100.00;96572.34;4948147;28;20034;-95
2024/02/10 07:02:47;;;;;;;18.05;3.45;;;;;;;3.57;100.00;96572.34;4924499;28;20180;-95
2024/02/10 07:05:20;;;;;;;;;;;;;;;3.54;100.00;96564.91;4938442;28;20038;-94
2024/02/10 07:07:48;;;;;;;17.45;4.25;;;;;;;3.52;100.00;96574.75;4933552;28;20276;-95
2024/02/10 07:10:19;;;;;;;20.35;4.20;;;;;;;3.59;100.00;96586.84;4941661;28;20160;-95
2024/02/10 07:13:04;;;;;;;22.05;4.45;;;;;;;3.55;100.00;96575.16;4933457;28;20041;-94
2024/02/10 07:15:30;;;;;;;25.20;4.15;;;;;;;3.52;100.00;96583.38;4935408;29;20375;-94
2024/02/10 07:17:56;;;;;;;15.75;4.07;;;;;;;3.55;100.00;96587.44;4949799;28;20026;-94
2024/02/10 07:20:24;;;;;;;32.15;4.03;;;;;;;3.57;100.00;96588.84;4924461;28;20374;-95
2024/02/10 07:22:55;;;;;;;24.27;4.18;;;;;;;3.58;100.00;96590.44;4949713;28;20051;-94
2024/02/10 07:25:28;;;;;;;26.90;3.17;;;;;;;3.66;100.00;96599.94;4938079;28;20063;-94
2024/02/10 07:28:01;;;;;;;22.55;2.45;;;;;;;3.62;100.00;96603.91;4949173;28;20484;-94
2024/02/10 07:30:31;;;;;;;27.90;2.88;;;;;;;3.71;100.00;96607.19;4956470;28;20478;-95
2024/02/10 07:33:03;;;;;;;26.85;3.75;;;;;;;3.82;100.00;96611.03;4945779;28;20046;-94
2024/02/10 07:35:51;;;;;;;37.00;3.27;;;;;;;3.85;100.00;96614.03;4978162;28;20537;-95
2024/02/10 07:38:20;;;;;;;23.77;2.58;;;;;;;3.84;100.00;96609.00;4945683;28;20448;-95
2024/02/10 07:40:48;;;;;;;20.33;2.10;;;;;;;3.78;100.00;96607.19;4938727;28;20061;-94
2024/02/10 07:43:16;;;;;;;19.58;2.28;;;;;;;3.79;100.00;96616.66;4926155;28;20030;-95
2024/02/10 07:45:45;;;;;;;20.17;2.30;;;;;;;3.84;100.00;96611.63;4969863;28;20034;-94
2024/02/10 07:48:17;;;;;;;25.42;3.22;;;;;;;3.82;100.00;96614.44;4925153;28;20042;-94
2024/02/10 07:50:43;;;;;;;21.15;2.20;;;;;;;3.83;100.00;96623.88;4938209;28;20074;-94
2024/02/10 07:53:12;;;;;;;25.95;3.95;;;;;;;3.84;100.00;96632.50;4940660;28;20085;-94
2024/02/10 07:55:38;;;;;;;20.13;3.30;;;;;;;3.88;100.00;96627.72;4921061;28;20735;-95
2024/02/10 07:58:04;;;;;;;26.77;2.95;;;;;;;3.97;100.00;96637.78;4920748;28;20031;-94
2024/02/10 08:00:32;;;;;;;20.77;2.55;;;;;;;4.04;100.00;96637.81;4908236;29;20853;-94
2024/02/10 08:03:16;;;;;;;26.23;2.30;;;;;;;4.12;100.00;96639.44;4925208;29;20112;-94
2024/02/10 08:05:48;;;;;;;15.93;2.30;;;;;;;4.15;100.00;96652.13;4926941;28;20128;-94
2024/02/10 08:08:44;;;;;;;33.05;3.28;;;;;;;4.30;100.00;96654.56;4925676;29;20035;-93
2024/02/10 08:11:09;;;;;;;14.00;2.05;;;;;;;4.27;100.00;96648.94;4947301;29;20039;-94
2024/02/10 08:13:41;;;;;;;27.73;2.63;;;;;;;4.34;100.00;96653.16;4902960;28;20039;-94
2024/02/10 08:16:07;;;;;;;14.95;2.05;;;;;;;4.38;100.00;96644.94;4940477;29;20033;-93
2024/02/10 08:18:33;;;;;;;23.20;2.47;;;;;;;4.42;100.00;96661.81;4942068;28;20483;-94
2024/02/10 08:21:34;;;;;;;22.65;3.63;;;;;;;4.46;100.00;96663.03;4941569;28;20083;-93
2024/02/10 08:24:05;;;;;;;21.60;3.72;;;;;;;4.47;100.00;96659.41;4933284;28;20045;-94
2024/02/10 08:26:37;;;;;;;28.02;3.50;;;;;;;4.53;100.00;96669.09;4914737;28;20520;-94
2024/02/10 08:29:06;;;;;;;20.38;3.80;;;;;;;4.53;100.00;96663.84;4930085;28;20050;-94
2024/02/10 08:31:34;;;;;;;21.08;3.45;;;;;;;4.55;100.00;96676.72;4917929;28;20050;-94
2024/02/10 08:34:01;;;;;;;32.40;3.55;;;;;;;4.55;100.00;96687.19;4911329;28;20065;-94
2024/02/10 08:36:28;;;;;;;16.85;2.05;;;;;;;4.58;100.00;96694.63;4939928;29;20537;-94
2024/02/10 08:38:56;;;;;;;16.88;2.15;;;;;;;4.55;100.00;96695.84;4923763;29;20652;-93
2024/02/10 08:41:22;;;;;;;22.50;2.00;;;;;;;4.50;100.00;96687.78;4940283;28;20035;-94
2024/02/10 08:43:48;;;;;;;15.23;2.22;;;;;;;4.57;100.00;96696.44;4925629;29;20098;-94
2024/02/10 08:46:15;;;;;;;16.58;1.77;;;;;;;4.50;100.00;96689.59;4947462;28;20043;-94
2024/02/10 08:48:44;;;;;;;20.65;2.08;;;;;;;4.56;100.00;96697.47;4921299;29;20035;-94
2024/02/10 08:51:13;;;;;;;18.75;2.25;;;;;;;4.56;100.00;96704.50;4898908;28;20114;-94
2024/02/10 08:53:43;;;;;;;16.00;2.42;;;;;;;4.62;100.00;96708.91;4914626;28;20082;-93
2024/02/10 08:56:12;;;;;;;12.85;1.95;;;;;;;4.62;100.00;96713.38;4956175;28;20035;-93
2024/02/10 08:58:43;;;;;;;20.88;2.40;;;;;;;4.65;100.00;96720.81;4929154;28;20047;-94
2024/02/10 09:01:15;;;;;;;17.27;2.30;;;;;;;4.63;100.00;96722.81;4931094;28;20043;-94
2024/02/10 09:03:50;;;;;;;19.63;2.35;;;;;;;4.68;100.00;96730.88;4938997;28;20041;-93
2024/02/10 09:06:21;;;;;;;20.92;2.30;;;;;;;4.75;100.00;96738.72;4948468;28;20039;-94
2024/02/10 09:08:51;;;;;;;19.60;2.20;;;;;;;4.78;100.00;96740.97;4926722;28;20042;-93
2024/02/10 09:11:22;;;;;;;18.40;2.47;;;;;;;4.79;100.00;96735.53;4959621;28;20050;-93
2024/02/10 09:13:48;;;;;;;28.67;2.90;;;;;;;4.83;100.00;96747.19;4962628;28;20039;-93
2024/02/10 09:16:26;;;;;;;13.00;1.92;;;;;;;4.98;100.00;96743.59;4941436;28;20034;-94
2024/02/10 09:18:51;;;;;;;24.23;3.33;;;;;;;4.95;100.00;96744.78;4965102;28;20089;-93
2024/02/10 09:21:20;;;;;;;20.02;2.20;;;;;;;4.97;100.00;96736.72;4933405;28;20039;-94
2024/02/10 09:24:18;;;;;;;22.55;3.25;;;;;;;5.05;100.00;96739.16;4966700;28;20313;-94
2024/02/10 09:26:48;;;;;;;18.38;2.20;;;;;;;5.03;100.00;96745.63;4918684;28;20080;-94
2024/02/10 09:29:15;;;;;;;17.73;2.13;;;;;;;5.01;100.00;96742.38;4927111;28;20042;-93
2024/02/10 09:32:01;;;;;;;20.17;2.30;;;;;;;5.06;100.00;96750.44;4941943;28;20030;-94
2024/02/10 09:34:47;;;;;;;22.92;2.72;;;;;;;5.02;100.00;96741.38;4929941;28;20034;-94
2024/02/10 09:37:14;;;;;;;16.02;2.10;;;;;;;5.03;100.00;96756.88;4938204;29;20039;-94
2024/02/10 09:39:41;;;;;;;19.35;3.03;;;;;;;4.99;100.00;96750.44;4944014;28;20043;-94
2024/02/10 09:42:20;;;;;;;28.20;3.53;;;;;;;5.07;100.00;96744.19;4927143;28;20089;-94
2024/02/10 09:44:49;;;;;;;16.42;3.22;;;;;;;5.08;100.00;96754.47;4946911;28;20039;-94
2024/02/10 09:47:16;;;;;;;17.27;2.88;;;;;;;5.16;100.00;96758.69;4932865;28;20033;-94
2024/02/10 09:49:43;;;;;;;18.95;3.38;;;;;;;5.20;100.00;96757.31;4938762;29;20106;-93
2024/02/10 09:52:09;;;;;;;22.98;3.47;;;;;;;5.24;100.00;96768.16;4941071;28;20038;-94
2024/02/10 09:54:36;;;;;;;20.67;3.90;;;;;;;5.27;100.00;96761.72;4951092;28;20137;-94
2024/02/10 09:57:11;;;;;;;20.42;3.53;;;;;;;5.41;100.00;96773.00;4930055;28;20101;-94
2024/02/10 09:59:39;;;;;;;21.67;3.75;;;;;;;5.41;100.00;96767.78;4927092;28;20038;-94
2024/02/10 10:02:08;;;;;;;24.90;3.72;;;;;;;5.54;100.00;96772.19;4925501;28;20046;-94
2024/02/10 10:04:35;;;;;;;21.70;3.38;;;;;;;5.62;100.00;96772.00;4946582;28;20490;-94
2024/02/10 10:07:06;;;;;;;23.30;3.78;;;;;;;5.67;100.00;96768.75;4947735;28;20109;-93
2024/02/10 10:09:32;;;;;;;26.63;3.53;;;;;;;5.66;100.00;96775.81;4925184;28;20039;-92
2024/02/10 10:11:58;;;;;;;17.42;3.05;;;;;;;5.64;100.00;96769.94;4944129;28;20089;-93
2024/02/10 10:14:24;;;;;;;17.80;3.60;;;;;;;5.74;100.00;96784.44;4935582;28;20097;-93
2024/02/10 10:16:58;;;;;;;19.98;3.47;;;;;;;5.81;100.00;96786.06;4938509;28;20046;-94
2024/02/10 10:19:27;;;;;;;17.00;3.35;;;;;;;5.81;100.00;96790.50;4937055;28;20042;-95
2024/02/10 10:21:57;;;;;;;27.30;3.72;;;;;;;5.89;100.00;96785.03;4938859;28;20054;-94
2024/02/10 10:24:25;;;;;;;13.70;2.97;;;;;;;6.00;100.00;96790.66;4940807;28;20489;-93
2024/02/10 10:26:55;;;;;;;19.75;3.55;;;;;;;6.14;100.00;96788.84;4954342;28;20053;-95
2024/02/10 10:29:22;;;;;;;15.45;4.70;;;;;;;6.11;100.00;96784.00;4936881;28;20031;-93
2024/02/10 10:31:49;;;;;;;19.13;3.78;;;;;;;6.13;100.00;96780.16;4928301;28;20086;-95
2024/02/10 10:34:19;;;;;;;9.00;3.25;;;;;;;6.34;100.00;96799.25;4938321;28;20098;-93
2024/02/10 10:36:48;;;;;;;13.48;3.00;;;;;;;6.32;100.00;96791.59;4943758;28;20046;-95
2024/02/10 10:39:15;;;;;;;19.98;4.00;;;;;;;6.35;100.00;96792.19;4928454;28;20049;-93
2024/02/10 10:41:45;;;;;;;15.43;3.25;;;;;;;6.38;100.00;96795.22;4945773;28;20067;-94
2024/02/10 10:44:13;;;;;;;16.90;3.78;;;;;;;6.41;100.00;96784.31;4931019;28;20046;-93
2024/02/10 10:46:40;;;;;;;18.55;3.83;;;;;;;6.49;100.00;96800.81;4929937;28;20030;-93
2024/02/10 10:49:09;;;;;;;16.55;4.25;;;;;;;6.49;100.00;96788.50;4939148;28;20494;-94
2024/02/10 10:51:47;;;;;;;20.73;4.60;;;;;;;6.56;100.00;96796.34;4954643;28;20450;-95
2024/02/10 10:54:17;;;;;;;26.25;5.15;;;;;;;6.58;100.00;96797.75;4937178;28;20062;-92
2024/02/10 10:56:45;;;;;;;29.23;5.70;;;;;;;6.61;100.00;96806.22;4936862;28;20165;-93
2024/02/10 10:59:12;;;;;;;18.40;4.63;;;;;;;6.63;100.00;96812.06;4956002;28;20042;-93
2024/02/10 11:01:40;;;;;;;26.75;5.57;;;;;;;6.60;100.00;96809.84;4942763;28;20448;-94
2024/02/10 11:04:10;;;;;;;29.15;4.63;;;;;;;6.65;100.00;96825.78;4923720;28;20047;-93
2024/02/10 11:06:36;;;;;;;26.55;5.18;;;;;;;6.60;100.00;96820.34;4956304;28;20097;-94
2024/02/10 11:09:04;;;;;;;16.10;3.47;;;;;;;6.58;100.00;96826.63;4932946;28;20035;-93
2024/02/10 11:11:39;;;;;;;32.78;5.45;;;;;;;6.54;100.00;96822.00;4962393;28;20089;-93
2024/02/10 11:14:11;;;;;;;19.85;4.07;;;;;;;6.60;100.00;96828.22;4940905;28;20034;-95
2024/02/10 11:16:37;;;;;;;29.50;4.70;;;;;;;6.53;100.00;96829.03;4918377;28;20044;-93
2024/02/10 11:19:03;;;;;;;20.05;3.63;;;;;;;6.51;100.00;96836.34;4936714;28;20050;-93
2024/02/10 11:21:31;;;;;;;18.10;4.18;;;;;;;6.48;100.00;96838.56;4927039;28;20037;-93
2024/02/10 11:23:57;;;;;;;21.25;3.17;;;;;;;6.39;100.00;96830.91;4939408;28;20058;-93
2024/02/10 11:26:28;;;;;;;26.20;5.05;;;;;;;6.44;100.00;96846.03;4938861;28;20057;-93
2024/02/10 11:29:06;;;;;;;16.13;3.17;;;;;;;6.38;100.00;96829.31;4922940;28;20601;-94
2024/02/10 11:31:33;;;;;;;16.70;3.85;;;;;;;6.33;100.00;96829.13;4964296;28;20112;-94
2024/02/10 11:34:11;;;;;;;25.15;4.72;;;;;;;6.44;100.00;96836.34;4928933;28;20497;-94
2024/02/10 11:36:38;;;;;;;21.08;3.45;;;;;;;6.42;100.00;96838.38;4943973;28;20043;-93
2024/02/10 11:39:08;;;;;;;20.58;3.90;;;;;;;6.41;100.00;96833.34;4950305;28;20035;-94
2024/02/10 11:41:38;;;;;;;18.25;4.03;;;;;;;6.45;100.00;96837.13;4921404;28;20062;-94
2024/02/10 11:44:05;;;;;;;16.35;3.80;;;;;;;6.53;100.00;96850.03;4939772;28;20027;-93
2024/02/10 11:46:31;;;;;;;18.42;3.55;;;;;;;6.54;100.00;96838.56;4949452;28;20125;-93
2024/02/10 11:48:59;;;;;;;21.30;4.40;;;;;;;6.65;100.00;96850.22;4937639;29;20121;-94
2024/02/10 11:51:28;;;;;;;20.38;5.68;;;;;;;6.75;100.00;96844.53;4954889;28;20062;-94
2024/02/10 11:53:59;;;;;;;16.90;3.78;;;;;;;6.88;100.00;96850.72;4922164;28;20142;-93
2024/02/10 11:56:25;;;;;;;18.63;4.32;;;;;;;6.91;100.00;96843.22;4924797;28;20034;-94
2024/02/10 11:58:54;;;;;;;22.98;4.90;;;;;;;7.04;100.00;96846.81;4939840;28;20172;-93
2024/02/10 12:01:21;;;;;;;18.90;4.32;;;;;;;7.16;100.00;96853.00;4928537;28;20062;-93
2024/02/10 12:03:48;;;;;;;25.40;5.53;;;;;;;7.29;100.00;96853.91;4955155;28;20039;-93
2024/02/10 12:06:20;;;;;;;24.92;5.22;;;;;;;7.37;100.00;96842.34;4942936;28;20042;-93
2024/02/10 12:08:47;;;;;;;27.75;5.78;;;;;;;7.39;100.00;96845.56;4957047;28;20053;-93
2024/02/10 12:11:16;;;;;;;26.75;5.72;;;;;;;7.52;100.00;96848.09;4925435;28;20030;-93
2024/02/10 12:13:43;;;;;;;16.13;4.53;;;;;;;7.50;100.00;96852.75;4922682;28;20050;-93
2024/02/10 12:16:11;;;;;;;27.38;6.35;;;;;;;7.55;100.00;96852.91;4926431;28;20030;-93
2024/02/10 12:18:39;;;;;;;14.35;4.95;;;;;;;7.53;100.00;96852.31;4922291;28;20132;-94
2024/02/10 12:21:10;;;;;;;26.38;5.55;;;;;;;7.64;100.00;96855.28;4948597;28;20070;-93
2024/02/10 12:23:40;;;;;;;26.55;5.65;;;;;;;7.72;100.00;96862.91;4946575;28;20158;-93
2024/02/10 12:26:06;;;;;;;22.25;5.97;;;;;;;7.72;100.00;96855.03;4946313;28;20042;-93
2024/02/10 12:28:35;;;;;;;30.15;6.57;;;;;;;7.75;100.00;96854.59;4921891;28;20046;-93
2024/02/10 12:31:01;;;;;;;24.15;7.03;;;;;;;7.84;100.00;96859.56;4956876;28;20046;-92
2024/02/10 12:33:27;;;;;;;25.65;6.22;;;;;;;7.85;100.00;96850.66;4961330;28;20046;-92
2024/02/10 12:35:55;;;;;;;27.90;5.63;;;;;;;7.91;100.00;96855.06;4934253;28;20440;-91
2024/02/10 12:38:25;;;;;;;27.52;6.55;;;;;;;7.99;100.00;96857.41;4922273;28;20621;-93
2024/02/10 12:40:55;;;;;;;15.80;4.53;;;;;;;8.06;100.00;96858.16;4934409;29;20035;-92
2024/02/10 12:43:24;;;;;;;31.00;5.82;;;;;;;8.16;100.00;96864.72;4956088;28;20035;-92
2024/02/10 12:45:53;;;;;;;18.67;5.45;;;;;;;8.24;100.00;96859.19;4942528;28;20039;-92
2024/02/10 12:48:19;;;;;;;29.15;5.45;;;;;;;8.24;100.00;96864.47;4943471;28;20039;-92
2024/02/10 12:50:47;;;;;;;32.13;6.35;;;;;;;8.32;100.00;96873.88;4961109;28;20042;-93
2024/02/10 12:53:13;;;;;;;25.23;3.97;;;;;;;8.24;100.00;96867.09;4941180;28;20056;-92
2024/02/10 12:55:46;;;;;;;20.50;4.63;;;;;;;8.27;100.00;96865.84;4950000;28;20126;-91
2024/02/10 12:58:20;;;;;;;24.30;4.45;;;;;;;8.31;100.00;96867.81;4926102;28;20073;-92
2024/02/10 13:00:46;;;;;;;19.58;3.47;;;;;;;8.09;100.00;96861.38;4930395;28;20035;-93
2024/02/10 13:03:19;;;;;;;30.23;6.25;;;;;;;8.15;100.00;96858.69;4942266;28;20661;-92
2024/02/10 13:05:46;;;;;;;19.25;3.90;;;;;;;8.14;100.00;96864.94;4925476;28;20034;-92
2024/02/10 13:08:17;;;;;;;17.98;4.00;;;;;;;8.13;100.00;96863.34;4940295;28;20556;-92
2024/02/10 13:11:08;;;;;;;24.60;4.47;;;;;;;8.29;100.00;96867.25;4945303;28;20035;-92
2024/02/10 13:13:34;;;;;;;21.98;5.25;;;;;;;8.29;100.00;96864.63;4926128;28;20043;-92
2024/02/10 13:16:01;;;;;;;23.95;5.88;;;;;;;8.24;100.00;96861.81;4930427;28;20031;-92
2024/02/10 13:18:27;;;;;;;22.38;4.50;;;;;;;8.25;100.00;96862.63;4945977;28;20045;-92
2024/02/10 13:20:53;;;;;;;23.00;4.80;;;;;;;8.37;100.00;96868.78;4922832;29;20035;-92
2024/02/10 13:23:21;;;;;;;22.23;5.40;;;;;;;8.34;100.00;96871.84;4938580;28;20027;-92
2024/02/10 13:25:50;;;;;;;23.77;4.97;;;;;;;8.44;100.00;96880.03;4964582;28;20038;-93
2024/02/10 13:28:16;;;;;;;28.73;5.88;;;;;;;8.36;100.00;96880.31;4927324;28;20038;-92
2024/02/10 13:30:47;;;;;;;29.85;5.18;;;;;;;8.31;100.00;96883.59;4930745;28;20045;-93
2024/02/10 13:33:13;;;;;;;26.52;4.45;;;;;;;8.31;100.00;96880.97;4931427;28;20112;-91
2024/02/10 13:35:39;;;;;;;16.48;4.07;;;;;;;8.24;100.00;96876.78;4938344;28;20031;-92
2024/02/10 14:00:29;;;;;;;22.92;4.22;;;;;;;8.45;100.00;96904.53;4953621;28;20073;-92
2024/02/10 14:03:00;;;;;;;22.27;4.18;;;;;;;8.44;100.00;96908.97;4944706;28;20038;-91
2024/02/10 14:05:41;;;;;;;24.73;4.72;;;;;;;8.45;100.00;96912.44;4944727;28;20042;-92
2024/02/10 14:10:55;;;;;;;19.02;4.53;;;;;;;8.57;100.00;96920.41;4940365;28;20046;-92
2024/02/10 14:13:24;;;;;;;21.85;3.92;;;;;;;8.68;100.00;96917.06;4934026;28;20039;-93
2024/02/10 14:15:56;;;;;;;15.75;4.30;;;;;;;8.82;100.00;96916.94;4915296;29;20122;-92
2024/02/10 14:18:28;;;;;;;26.67;5.03;;;;;;;8.92;100.00;96917.19;4938966;28;20035;-93
2024/02/10 14:21:03;;;;;;;30.48;6.28;;;;;;;8.93;100.00;96918.78;4940963;28;20053;-93
2024/02/10 14:23:31;;;;;;;25.63;5.47;;;;;;;9.05;100.00;96920.69;4951355;28;20038;-93
2024/02/10 14:26:14;;;;;;;30.85;5.78;;;;;;;9.08;100.00;96928.16;4933993;28;20457;-92
2024/02/10 14:28:57;;;;;;;25.13;4.72;;;;;;;9.15;100.00;96934.16;4947320;28;20047;-93
2024/02/10 14:31:23;;;;;;;18.27;4.63;;;;;;;8.97;100.00;96926.25;4923038;28;20041;-93
2024/02/10 14:33:57;;;;;;;23.42;5.35;;;;;;;9.05;100.00;96939.94;4926151;28;20030;-93
2024/02/10 14:39:19;;;;;;;29.13;7.60;;;;;;;8.91;100.00;96941.13;4929548;28;20043;-93
2024/02/10 14:41:45;;;;;;;22.60;6.47;;;;;;;8.88;100.00;96934.47;4924899;28;20364;-93